createdAt,value
2018-09-08T00:02:02.382Z,22.93
2018-09-08T00:04:31.468Z,22.40
2018-09-08T00:07:05.882Z,21.77
2018-09-08T00:09:34.939Z,21.97
2018-09-08T00:12:04.133Z,22.73
2018-09-08T00:14:33.287Z,21.80
2018-09-08T00:17:07.428Z,21.43
2018-09-08T00:19:41.846Z,22.00
2018-09-08T00:22:16.397Z,21.67
2018-09-08T00:24:50.733Z,20.93
2018-09-08T00:27:23.566Z,21.73
2018-09-08T00:29:52.873Z,21.27
2018-09-08T00:32:22.876Z,20.90
2018-09-08T00:34:51.789Z,22.20
2018-09-08T00:37:20.941Z,21.90
2018-09-08T00:39:51.046Z,21.50
2018-09-08T00:42:20.479Z,21.60
2018-09-08T00:44:49.501Z,22.10
2018-09-08T00:47:18.449Z,22.83
2018-09-08T00:49:47.389Z,23.53
2018-09-08T00:52:16.529Z,21.90
2018-09-08T00:54:45.477Z,23.30
2018-09-08T00:57:14.745Z,24.20
2018-09-08T00:59:44.124Z,22.40
2018-09-08T01:02:12.974Z,23.23
2018-09-08T01:04:41.971Z,21.93
2018-09-08T01:07:16.345Z,22.73
2018-09-08T01:09:45.612Z,22.13
2018-09-08T01:12:14.845Z,22.67
2018-09-08T01:14:43.943Z,20.87
2018-09-08T01:17:12.775Z,21.47
2018-09-08T01:19:41.930Z,22.43
2018-09-08T01:22:10.920Z,22.23
2018-09-08T01:24:39.868Z,22.57
2018-09-08T01:27:08.790Z,21.33
2018-09-08T01:29:37.789Z,22.40
2018-09-08T01:32:07.066Z,22.70
2018-09-08T01:34:36.341Z,22.63
2018-09-08T01:37:05.683Z,21.90
2018-09-08T01:39:34.753Z,23.17
2018-09-08T01:42:04.112Z,21.57
2018-09-08T01:44:33.004Z,22.37
2018-09-08T01:47:02.345Z,21.97
2018-09-08T01:49:31.873Z,23.53
2018-09-08T01:52:00.998Z,23.00
2018-09-08T01:54:30.253Z,22.43
2018-09-08T01:56:59.141Z,22.17
2018-09-08T01:59:28.752Z,22.33
2018-09-08T02:01:58.223Z,22.40
2018-09-08T02:04:27.493Z,22.23
2018-09-08T02:06:56.689Z,23.73
2018-09-08T02:09:25.695Z,22.20
2018-09-08T02:11:54.681Z,22.77
2018-09-08T02:14:23.776Z,23.07
2018-09-08T02:16:52.766Z,23.07
2018-09-08T02:19:21.793Z,23.23
2018-09-08T02:21:50.962Z,22.97
2018-09-08T02:24:20.076Z,23.93
2018-09-08T02:26:49.062Z,23.10
2018-09-08T02:29:18.126Z,24.37
2018-09-08T02:31:47.226Z,23.13
2018-09-08T02:34:16.622Z,21.87
2018-09-08T02:36:45.570Z,24.77
2018-09-08T02:39:14.649Z,22.60
2018-09-08T02:41:43.829Z,25.03
2018-09-08T02:44:12.954Z,25.97
2018-09-08T02:46:41.956Z,22.20
2018-09-08T02:49:10.907Z,24.53
2018-09-08T02:51:38.678Z,23.77
2018-09-08T02:54:06.411Z,23.73
2018-09-08T02:56:34.183Z,23.70
2018-09-08T02:59:02.006Z,24.03
2018-09-08T03:01:29.720Z,24.40
2018-09-08T03:03:57.498Z,24.63
2018-09-08T03:06:25.307Z,23.63
2018-09-08T03:08:53.031Z,22.97
2018-09-08T03:11:20.787Z,23.80
2018-09-08T03:13:48.612Z,23.67
2018-09-08T03:16:16.303Z,23.93
2018-09-08T03:18:43.969Z,24.07
2018-09-08T03:21:11.896Z,23.47
2018-09-08T03:23:39.601Z,23.83
2018-09-08T03:26:07.079Z,22.90
2018-09-08T03:28:34.866Z,23.87
2018-09-08T03:31:02.661Z,24.27
2018-09-08T03:33:30.358Z,25.53
2018-09-08T03:35:58.164Z,24.67
2018-09-08T03:38:25.801Z,23.57
2018-09-08T03:40:53.341Z,24.73
2018-09-08T03:43:20.859Z,24.87
2018-09-08T03:45:48.558Z,25.30
2018-09-08T03:48:16.984Z,25.03
2018-09-08T03:50:44.793Z,23.93
2018-09-08T03:53:12.477Z,21.50
2018-09-08T03:55:40.301Z,22.13
2018-09-08T03:58:08.037Z,23.47
2018-09-08T04:00:35.771Z,24.13
2018-09-08T04:03:05.076Z,22.77
2018-09-08T04:05:34.448Z,23.67
2018-09-08T04:08:04.033Z,23.10
2018-09-08T04:10:32.879Z,23.83
2018-09-08T04:13:01.894Z,24.50
2018-09-08T04:15:31.009Z,23.60
2018-09-08T04:18:00.290Z,22.93
2018-09-08T04:20:29.305Z,21.97
2018-09-08T04:22:58.509Z,23.17
2018-09-08T04:25:27.578Z,22.63
2018-09-08T04:27:56.949Z,20.93
2018-09-08T04:30:26.060Z,22.33
2018-09-08T04:32:55.351Z,23.77
2018-09-08T04:35:24.685Z,20.70
2018-09-08T04:37:53.847Z,22.10
2018-09-08T04:40:23.380Z,22.90
2018-09-08T04:42:53.325Z,21.23
2018-09-08T04:45:23.442Z,23.03
2018-09-08T04:47:52.387Z,21.70
2018-09-08T04:50:21.600Z,22.67
2018-09-08T04:52:50.979Z,22.83
2018-09-08T04:55:19.983Z,22.03
2018-09-08T04:57:49.018Z,21.80
2018-09-08T05:00:18.097Z,19.47
2018-09-08T05:02:47.422Z,22.13
2018-09-08T05:05:16.618Z,20.73
2018-09-08T05:07:45.886Z,20.40
2018-09-08T05:10:14.885Z,20.47
2018-09-08T05:12:44.281Z,20.50
2018-09-08T05:15:13.318Z,20.10
2018-09-08T05:17:42.466Z,20.10
2018-09-08T05:20:11.561Z,20.77
2018-09-08T05:22:40.871Z,21.23
2018-09-08T05:25:09.854Z,20.57
2018-09-08T05:27:38.901Z,21.17
2018-09-08T05:30:07.933Z,20.70
2018-09-08T05:32:37.182Z,20.17
2018-09-08T05:35:07.006Z,21.23
2018-09-08T05:37:36.255Z,21.23
2018-09-08T05:40:06.002Z,20.57
2018-09-08T05:42:35.569Z,21.03
2018-09-08T05:45:05.417Z,18.93
2018-09-08T05:47:34.559Z,18.13
2018-09-08T05:50:03.638Z,20.03
2018-09-08T05:52:33.121Z,18.40
2018-09-08T05:55:01.970Z,18.27
2018-09-08T05:57:31.760Z,17.57
2018-09-08T06:00:01.165Z,17.83
2018-09-08T06:02:30.462Z,17.63
2018-09-08T06:04:59.677Z,17.97
2018-09-08T06:07:29.029Z,19.07
2018-09-08T06:09:58.201Z,17.83
2018-09-08T06:12:27.451Z,18.30
2018-09-08T06:14:56.515Z,17.53
2018-09-08T06:17:26.109Z,17.97
2018-09-08T06:19:55.470Z,17.00
2018-09-08T06:22:25.009Z,16.83
2018-09-08T06:24:53.950Z,16.47
2018-09-08T06:27:23.035Z,16.23
2018-09-08T06:29:51.895Z,16.93
2018-09-08T06:32:21.329Z,16.83
2018-09-08T06:34:50.404Z,16.27
2018-09-08T06:37:19.489Z,15.27
2018-09-08T06:39:48.529Z,15.90
2018-09-08T06:42:17.844Z,17.67
2018-09-08T06:44:46.857Z,16.83
2018-09-08T06:47:16.233Z,15.67
2018-09-08T06:49:45.239Z,16.40
2018-09-08T06:52:14.178Z,16.40
2018-09-08T06:54:43.517Z,15.40
2018-09-08T06:57:12.569Z,15.27
2018-09-08T06:59:42.069Z,15.70
2018-09-08T07:02:11.644Z,15.43
2018-09-08T07:04:40.839Z,15.70
2018-09-08T07:07:12.162Z,15.50
2018-09-08T07:09:42.129Z,14.77
2018-09-08T07:12:11.932Z,15.30
2018-09-08T07:14:41.261Z,14.80
2018-09-08T07:17:10.306Z,14.37
2018-09-08T07:19:39.846Z,14.23
2018-09-08T07:22:09.948Z,15.03
2018-09-08T07:24:39.609Z,14.53
2018-09-08T07:27:09.862Z,13.93
2018-09-08T07:29:39.002Z,14.20
2018-09-08T07:32:08.690Z,14.23
2018-09-08T07:34:38.312Z,13.50
2018-09-08T07:37:08.477Z,14.23
2018-09-08T07:39:38.535Z,13.90
2018-09-08T07:42:07.786Z,13.37
2018-09-08T07:44:36.933Z,13.80
2018-09-08T07:47:06.732Z,13.40
2018-09-08T07:49:36.042Z,12.70
2018-09-08T07:52:05.269Z,12.13
2018-09-08T07:54:34.790Z,12.47
2018-09-08T07:57:04.249Z,13.13
2018-09-08T07:59:33.533Z,13.17
2018-09-08T08:02:02.709Z,12.00
2018-09-08T08:04:31.974Z,12.43
2018-09-08T08:07:01.168Z,12.43
2018-09-08T08:09:30.185Z,11.73
2018-09-08T08:12:02.201Z,11.70
2018-09-08T08:14:33.515Z,11.57
2018-09-08T08:17:03.247Z,10.73
2018-09-08T08:19:32.868Z,11.07
2018-09-08T08:22:01.809Z,10.27
2018-09-08T08:24:32.407Z,9.60
2018-09-08T08:27:01.726Z,11.00
2018-09-08T08:29:31.141Z,10.83
2018-09-08T08:32:02.652Z,9.80
2018-09-08T08:34:32.055Z,10.00
2018-09-08T08:37:01.488Z,10.63
2018-09-08T08:39:31.027Z,10.23
2018-09-08T08:42:00.322Z,10.43
2018-09-08T08:44:29.473Z,10.27
2018-09-08T08:46:58.807Z,10.63
2018-09-08T08:49:28.035Z,11.03
2018-09-08T08:52:08.022Z,10.10
2018-09-08T08:54:49.236Z,10.40
2018-09-08T08:57:18.273Z,10.67
2018-09-08T08:59:47.790Z,9.60
2018-09-08T09:02:17.723Z,10.53
2018-09-08T09:04:48.103Z,10.03
2018-09-08T09:07:19.380Z,10.40
2018-09-08T09:09:48.708Z,9.90
2018-09-08T09:12:17.977Z,10.73
2018-09-08T09:14:48.860Z,10.40
2018-09-08T09:17:19.022Z,9.95
2018-09-08T09:19:59.235Z,10.65
2018-09-08T09:22:39.824Z,11.12
2018-09-08T09:25:10.475Z,10.72
2018-09-08T09:27:42.383Z,10.35
2018-09-08T09:30:13.045Z,11.03
2018-09-08T09:32:43.078Z,10.95
2018-09-08T09:35:13.795Z,11.75
2018-09-08T09:37:43.417Z,9.90
2018-09-08T09:40:13.973Z,9.43
2018-09-08T09:42:43.047Z,10.43
2018-09-08T09:45:12.537Z,9.95
2018-09-08T09:47:41.786Z,10.38
2018-09-08T09:50:12.441Z,10.38
2018-09-08T09:52:41.655Z,11.05
2018-09-08T09:55:10.866Z,11.45
2018-09-08T09:57:39.897Z,10.72
2018-09-08T10:00:10.146Z,10.28
2018-09-08T10:02:46.290Z,9.88
2018-09-08T10:05:21.677Z,10.88
2018-09-08T10:07:51.102Z,10.68
2018-09-08T10:10:24.613Z,10.27
2018-09-08T10:12:53.880Z,10.53
2018-09-08T10:15:23.413Z,10.70
2018-09-08T10:17:52.380Z,10.20
2018-09-08T10:20:22.681Z,11.80
2018-09-08T10:22:52.257Z,11.53
2018-09-08T10:25:21.411Z,11.30
2018-09-08T10:27:50.553Z,10.83
2018-09-08T10:30:19.751Z,11.38
2018-09-08T10:32:49.489Z,11.15
2018-09-08T10:35:19.101Z,10.88
2018-09-08T10:37:48.257Z,11.78
2018-09-08T10:40:17.637Z,11.90
2018-09-08T10:42:46.835Z,10.72
2018-09-08T10:45:15.875Z,11.05
2018-09-08T10:47:45.041Z,11.63
2018-09-08T10:50:14.349Z,11.55
2018-09-08T10:52:45.943Z,10.93
2018-09-08T10:55:15.050Z,10.23
2018-09-08T10:57:44.126Z,11.60
2018-09-08T11:00:13.993Z,11.48
2018-09-08T11:02:43.435Z,11.50
2018-09-08T11:05:12.651Z,11.60
2018-09-08T11:07:41.747Z,10.90
2018-09-08T11:10:10.893Z,10.55
2018-09-08T11:12:40.288Z,11.00
2018-09-08T11:15:10.391Z,10.80
2018-09-08T11:17:40.079Z,10.93
2018-09-08T11:20:10.452Z,10.90
2018-09-08T11:22:39.904Z,10.80
2018-09-08T11:25:09.168Z,11.00
2018-09-08T11:27:38.421Z,10.53
2018-09-08T11:30:08.217Z,10.28
2018-09-08T11:32:37.405Z,10.60
2018-09-08T11:35:06.962Z,10.48
2018-09-08T11:37:37.321Z,10.88
2018-09-08T11:40:07.116Z,10.08
2018-09-08T11:42:37.257Z,10.98
2018-09-08T11:45:06.327Z,10.80
2018-09-08T11:47:35.725Z,11.12
2018-09-08T11:50:06.102Z,11.05
2018-09-08T11:52:35.133Z,9.93
2018-09-08T11:55:04.368Z,10.60
2018-09-08T11:57:33.314Z,10.50
2018-09-08T12:00:02.355Z,10.63
2018-09-08T12:02:31.367Z,11.27
2018-09-08T12:05:01.360Z,10.00
2018-09-08T12:07:31.616Z,10.70
2018-09-08T12:10:00.838Z,10.80
2018-09-08T12:12:29.885Z,11.40
2018-09-08T12:14:59.145Z,10.60
2018-09-08T12:17:28.306Z,10.40
2018-09-08T12:19:57.424Z,9.83
2018-09-08T12:22:26.711Z,9.73
2018-09-08T12:24:55.890Z,9.93
2018-09-08T12:27:25.287Z,9.67
2018-09-08T12:29:54.197Z,9.77
2018-09-08T12:32:23.389Z,9.93
2018-09-08T12:34:52.605Z,9.50
2018-09-08T12:37:21.701Z,9.03
2018-09-08T12:39:51.001Z,10.60
2018-09-08T12:42:20.070Z,10.33
2018-09-08T12:44:49.360Z,9.93
2018-09-08T12:47:18.547Z,10.40
2018-09-08T12:49:47.713Z,10.80
2018-09-08T12:52:17.706Z,10.33
2018-09-08T12:54:46.995Z,10.70
2018-09-08T12:57:16.042Z,10.13
2018-09-08T12:59:44.895Z,10.33
2018-09-08T13:02:14.064Z,10.47
2018-09-08T13:04:43.369Z,10.70
2018-09-08T13:07:12.533Z,9.80
2018-09-08T13:09:41.707Z,10.13
2018-09-08T13:12:11.017Z,9.93
2018-09-08T13:14:40.078Z,10.43
2018-09-08T13:17:09.208Z,10.87
2018-09-08T13:19:38.669Z,11.20
2018-09-08T13:22:07.750Z,10.63
2018-09-08T13:24:37.146Z,10.60
2018-09-08T13:27:06.409Z,10.77
2018-09-08T13:29:35.322Z,10.57
2018-09-08T13:32:04.354Z,10.83
2018-09-08T13:34:33.279Z,12.07
2018-09-08T13:37:02.288Z,10.90
2018-09-08T13:39:31.713Z,10.23
2018-09-08T13:42:00.893Z,10.70
2018-09-08T13:44:30.170Z,10.53
2018-09-08T13:46:59.431Z,11.17
2018-09-08T13:49:28.696Z,10.40
2018-09-08T13:51:58.114Z,10.33
2018-09-08T13:54:27.120Z,9.87
2018-09-08T13:56:56.482Z,10.23
2018-09-08T13:59:26.075Z,9.20
2018-09-08T14:01:55.203Z,11.00
2018-09-08T14:04:24.269Z,10.73
2018-09-08T14:06:54.676Z,10.53
2018-09-08T14:09:25.013Z,9.83
2018-09-08T14:11:55.913Z,9.60
2018-09-08T14:14:25.415Z,9.70
2018-09-08T14:16:55.975Z,9.83
2018-09-08T14:19:27.006Z,9.77
2018-09-08T14:21:57.284Z,10.00
2018-09-08T14:24:26.733Z,9.70
2018-09-08T14:26:56.411Z,10.57
2018-09-08T14:29:26.127Z,9.57
2018-09-08T14:31:55.954Z,10.43
2018-09-08T14:34:25.490Z,9.40
2018-09-08T14:36:54.461Z,9.50
2018-09-08T14:39:23.412Z,9.23
2018-09-08T14:41:53.381Z,10.00
2018-09-08T14:44:23.973Z,9.70
2018-09-08T14:46:52.905Z,9.93
2018-09-08T14:49:23.398Z,9.73
2018-09-08T14:51:52.517Z,10.57
2018-09-08T14:54:21.779Z,9.83
2018-09-08T14:56:50.791Z,10.07
2018-09-08T14:59:19.822Z,10.30
2018-09-08T15:01:49.244Z,9.87
2018-09-08T15:04:18.818Z,10.17
2018-09-08T15:06:48.059Z,10.23
2018-09-08T15:09:17.813Z,10.90
2018-09-08T15:11:47.099Z,10.20
2018-09-08T15:14:16.358Z,9.93
2018-09-08T15:16:45.499Z,9.80
2018-09-08T15:19:15.363Z,9.30
2018-09-08T15:21:44.540Z,9.20
2018-09-08T15:24:14.709Z,8.60
2018-09-08T15:26:43.933Z,8.60
2018-09-08T15:29:13.916Z,8.17
2018-09-08T15:31:44.899Z,9.13
2018-09-08T15:34:15.248Z,8.03
2018-09-08T15:36:45.520Z,8.17
2018-09-08T15:39:14.914Z,9.57
2018-09-08T15:41:44.149Z,8.17
2018-09-08T15:44:13.323Z,9.03
2018-09-08T15:46:44.516Z,8.17
2018-09-08T15:49:13.729Z,8.40
2018-09-08T15:51:43.805Z,8.40
2018-09-08T15:54:13.238Z,8.03
2018-09-08T15:56:42.390Z,9.07
2018-09-08T15:59:11.482Z,8.83
2018-09-08T16:01:40.602Z,8.60
2018-09-08T16:04:09.665Z,9.30
2018-09-08T16:06:38.798Z,9.53
2018-09-08T16:09:08.312Z,8.80
2018-09-08T16:11:37.571Z,9.80
2018-09-08T16:14:07.023Z,10.03
2018-09-08T16:16:36.586Z,9.50
2018-09-08T16:19:06.054Z,10.07
2018-09-08T16:21:35.482Z,9.47
2018-09-08T16:24:04.545Z,8.97
2018-09-08T16:26:33.555Z,9.03
2018-09-08T16:29:02.530Z,10.17
2018-09-08T16:31:31.857Z,9.10
2018-09-08T16:34:01.075Z,9.50
2018-09-08T16:36:30.103Z,9.23
2018-09-08T16:38:59.463Z,9.23
2018-09-08T16:41:29.021Z,9.17
2018-09-08T16:43:58.057Z,9.10
2018-09-08T16:46:27.276Z,9.13
2018-09-08T16:48:56.426Z,9.37
2018-09-08T16:51:25.719Z,8.43
2018-09-08T16:53:56.099Z,9.03
2018-09-08T16:56:25.434Z,8.30
2018-09-08T16:58:54.709Z,8.27
2018-09-08T17:01:23.959Z,8.07
2018-09-08T17:03:53.057Z,7.73
2018-09-08T17:06:22.369Z,8.63
2018-09-08T17:08:51.683Z,7.83
2018-09-08T17:11:20.673Z,8.47
2018-09-08T17:13:49.752Z,7.90
2018-09-08T17:16:18.968Z,7.60
2018-09-08T17:18:47.908Z,7.50
2018-09-08T17:21:17.796Z,8.03
2018-09-08T17:23:48.185Z,7.43
2018-09-08T17:26:17.375Z,7.07
2018-09-08T17:28:46.439Z,7.30
2018-09-08T17:31:15.467Z,6.77
2018-09-08T17:33:44.837Z,7.13
2018-09-08T17:36:14.126Z,6.70
2018-09-08T17:38:43.443Z,6.43
2018-09-08T17:41:13.291Z,6.90
2018-09-08T17:43:43.121Z,5.90
2018-09-08T17:46:12.320Z,6.30
2018-09-08T17:48:41.489Z,5.40
2018-09-08T17:51:10.678Z,5.23
2018-09-08T17:53:40.068Z,5.20
2018-09-08T17:56:09.361Z,4.77
2018-09-08T17:58:38.549Z,4.67
2018-09-08T18:01:08.210Z,5.30
2018-09-08T18:03:38.177Z,5.23
2018-09-08T18:06:07.167Z,4.80
2018-09-08T18:08:36.222Z,4.73
2018-09-08T18:11:06.010Z,4.70
2018-09-08T18:13:35.355Z,4.73
2018-09-08T18:16:04.373Z,5.50
2018-09-08T18:18:33.409Z,4.67
2018-09-08T18:21:02.935Z,4.27
2018-09-08T18:23:31.981Z,4.40
2018-09-08T18:26:01.086Z,4.50
2018-09-08T18:28:30.689Z,4.50
2018-09-08T18:30:59.759Z,3.87
2018-09-08T18:33:29.110Z,4.10
2018-09-08T18:35:58.265Z,4.60
2018-09-08T18:38:27.520Z,4.00
2018-09-08T18:40:56.572Z,4.53
2018-09-08T18:43:25.945Z,4.10
2018-09-08T18:45:55.018Z,4.43
2018-09-08T18:48:24.034Z,4.30
2018-09-08T18:50:53.139Z,3.93
2018-09-08T18:53:22.262Z,4.10
2018-09-08T18:55:51.732Z,5.57
2018-09-08T18:58:21.017Z,5.70
2018-09-08T19:00:50.537Z,4.77
2018-09-08T19:03:19.609Z,4.17
2018-09-08T19:05:49.037Z,4.03
2018-09-08T19:08:18.130Z,5.03
2018-09-08T19:10:47.548Z,4.87
2018-09-08T19:13:16.720Z,4.77
2018-09-08T19:15:45.646Z,4.40
2018-09-08T19:18:14.781Z,4.40
2018-09-08T19:20:43.657Z,5.30
2018-09-08T19:23:13.023Z,4.57
2018-09-08T19:25:42.143Z,4.60
2018-09-08T19:28:11.361Z,5.30
2018-09-08T19:30:40.401Z,5.17
2018-09-08T19:33:09.862Z,4.33
2018-09-08T19:35:40.095Z,4.60
2018-09-08T19:38:09.580Z,5.10
2018-09-08T19:40:44.145Z,4.50
2018-09-08T19:43:14.077Z,4.30
2018-09-08T19:45:43.149Z,4.63
2018-09-08T19:48:14.222Z,4.80
2018-09-08T19:50:44.310Z,5.00
2018-09-08T19:53:18.431Z,4.10
2018-09-08T19:55:47.564Z,4.53
2018-09-08T19:58:22.261Z,4.60
2018-09-08T20:00:51.652Z,4.77
2018-09-08T20:03:21.518Z,4.90
2018-09-08T20:05:50.764Z,4.90
2018-09-08T20:08:19.905Z,4.93
2018-09-08T20:10:49.319Z,4.33
2018-09-08T20:13:18.540Z,4.90
2018-09-08T20:15:47.905Z,4.70
2018-09-08T20:18:17.198Z,4.93
2018-09-08T20:20:46.781Z,4.60
2018-09-08T20:23:16.810Z,4.50
2018-09-08T20:25:48.961Z,4.77
2018-09-08T20:28:18.861Z,4.80
2018-09-08T20:30:48.330Z,4.53
2018-09-08T20:33:17.730Z,4.40
2018-09-08T20:35:46.773Z,4.27
2018-09-08T20:38:15.667Z,4.07
2018-09-08T20:40:45.035Z,4.60
2018-09-08T20:43:14.370Z,3.87
2018-09-08T20:45:43.587Z,4.60
2018-09-08T20:48:12.562Z,4.03
2018-09-08T20:50:41.768Z,4.40
2018-09-08T20:53:10.955Z,4.63
2018-09-08T20:55:40.133Z,4.47
2018-09-08T20:58:09.286Z,4.80
2018-09-08T21:00:38.716Z,4.77
2018-09-08T21:03:07.936Z,4.37
2018-09-08T21:05:37.167Z,4.40
2018-09-08T21:08:06.126Z,4.53
2018-09-08T21:10:35.406Z,4.93
2018-09-08T21:13:04.541Z,4.57
2018-09-08T21:15:33.590Z,5.00
2018-09-08T21:18:03.213Z,4.77
2018-09-08T21:20:32.577Z,5.63
2018-09-08T21:23:01.651Z,4.73
2018-09-08T21:25:30.705Z,4.47
2018-09-08T21:27:59.923Z,4.20
2018-09-08T21:30:29.106Z,4.43
2018-09-08T21:32:58.124Z,5.00
2018-09-08T21:35:27.242Z,5.00
2018-09-08T21:37:56.514Z,4.93
2018-09-08T21:40:25.496Z,4.73
2018-09-08T21:42:54.602Z,4.90
2018-09-08T21:45:23.785Z,4.97
2018-09-08T21:47:53.153Z,5.47
2018-09-08T21:50:22.518Z,5.30
2018-09-08T21:52:51.949Z,4.90
2018-09-08T21:55:20.881Z,4.83
2018-09-08T21:57:50.258Z,5.07
2018-09-08T22:00:19.281Z,4.63
2018-09-08T22:02:48.592Z,4.53
2018-09-08T22:05:17.956Z,5.67
2018-09-08T22:07:47.083Z,4.40
2018-09-08T22:10:16.369Z,4.47
2018-09-08T22:12:45.592Z,5.43
2018-09-08T22:15:14.781Z,5.10
2018-09-08T22:17:44.189Z,5.13
2018-09-08T22:20:13.350Z,5.57
2018-09-08T22:22:42.273Z,5.20
2018-09-08T22:25:11.567Z,5.13
2018-09-08T22:27:40.957Z,4.90
2018-09-08T22:30:10.118Z,5.30
2018-09-08T22:32:39.203Z,5.30
2018-09-08T22:35:08.561Z,4.80
2018-09-08T22:37:37.821Z,5.03
2018-09-08T22:40:06.785Z,5.30
2018-09-08T22:42:36.216Z,5.50
2018-09-08T22:45:05.916Z,5.33
2018-09-08T22:47:35.134Z,4.93
2018-09-08T22:50:04.451Z,5.67
2018-09-08T22:52:33.313Z,5.47
2018-09-08T22:55:02.679Z,5.73
2018-09-08T22:57:32.320Z,5.50
2018-09-08T23:00:01.273Z,5.67
2018-09-08T23:02:30.218Z,6.33
2018-09-08T23:04:59.624Z,5.70
2018-09-08T23:07:28.449Z,5.70
2018-09-08T23:09:57.485Z,5.30
2018-09-08T23:12:26.629Z,5.67
2018-09-08T23:14:55.794Z,6.20
2018-09-08T23:17:26.150Z,5.50
2018-09-08T23:19:55.457Z,5.53
2018-09-08T23:22:24.876Z,5.73
2018-09-08T23:24:53.905Z,5.60
2018-09-08T23:27:23.404Z,5.60
2018-09-08T23:29:53.208Z,5.80
2018-09-08T23:32:22.490Z,6.00
2018-09-08T23:34:51.469Z,6.50
2018-09-08T23:37:20.382Z,6.23
2018-09-08T23:39:49.471Z,5.43
2018-09-08T23:42:18.597Z,5.23
2018-09-08T23:44:47.703Z,5.27
2018-09-08T23:47:16.677Z,5.83
2018-09-08T23:49:45.727Z,5.30
2018-09-08T23:52:14.950Z,6.80
2018-09-08T23:54:44.057Z,7.80
2018-09-08T23:57:13.137Z,6.53
2018-09-08T23:59:42.410Z,5.83
